Time;durP1;ratioP1;P1;durP2;ratioP2;P2;SDS_P1;SDS_P2;PMS_P1;PMS_P2;Temp;Humidity;BMP_temperature;BMP_pressure;BME280_temperature;BME280_humidity;BME280_pressure;Samples;Min_cycle;Max_cycle;Signal;HPM_P1;HPM_P2
2023/07/14 00:01:40;;;;;;;1.20;0.55;;;25.10;45.30;;;;;;5011623;28;20025;-77
2023/07/14 00:04:16;;;;;;;0.70;0.40;;;25.10;45.40;;;;;;5011442;28;20132;-77
2023/07/14 00:06:44;;;;;;;1.45;0.82;;;25.10;45.30;;;;;;5011340;28;20235;-77
2023/07/14 00:09:30;;;;;;;1.85;0.70;;;25.10;45.40;;;;;;5011293;28;20022;-77
2023/07/14 00:11:57;;;;;;;1.30;0.70;;;25.10;45.50;;;;;;5011341;28;20144;-77
2023/07/14 00:14:23;;;;;;;3.10;0.70;;;25.10;45.50;;;;;;5011293;28;20030;-77
2023/07/14 00:16:49;;;;;;;1.48;0.85;;;;;;;;;;5015061;28;20084;-77
2023/07/14 00:19:18;;;;;;;1.60;0.65;;;25.10;44.90;;;;;;5015049;28;20030;-77
2023/07/14 00:21:46;;;;;;;1.50;0.80;;;25.10;45.00;;;;;;5015311;28;20029;-77
2023/07/14 00:24:15;;;;;;;3.72;0.80;;;25.00;45.70;;;;;;5015358;28;20485;-77
2023/07/14 00:26:45;;;;;;;1.17;0.65;;;25.00;44.90;;;;;;5015275;28;20045;-77
2023/07/14 00:29:38;;;;;;;0.90;0.60;;;25.00;45.50;;;;;;5015573;28;20049;-78
2023/07/14 00:32:18;;;;;;;1.50;0.68;;;25.00;45.10;;;;;;5010819;28;20030;-78
2023/07/14 00:34:45;;;;;;;1.13;0.50;;;25.00;45.70;;;;;;5015091;28;20033;-77
2023/07/14 00:37:11;;;;;;;1.80;0.73;;;25.00;45.00;;;;;;5015002;28;20033;-77
2023/07/14 00:39:39;;;;;;;0.40;0.40;;;25.00;45.10;;;;;;5014956;28;20061;-77
2023/07/14 00:42:10;;;;;;;1.38;0.50;;;24.90;45.70;;;;;;5014820;28;20093;-77
2023/07/14 00:44:36;;;;;;;0.95;0.65;;;24.90;44.90;;;;;;5014938;28;20033;-77
2023/07/14 00:47:05;;;;;;;0.80;0.60;;;24.80;45.70;;;;;;5014857;28;20404;-77
2023/07/14 00:49:39;;;;;;;1.20;0.57;;;24.90;46.30;;;;;;5014564;28;20022;-77
2023/07/14 00:52:16;;;;;;;2.13;0.60;;;24.90;45.70;;;;;;5015072;28;20053;-77
2023/07/14 00:54:47;;;;;;;1.08;0.70;;;24.90;45.50;;;;;;5015173;28;20025;-77
2023/07/14 00:57:17;;;;;;;2.17;0.75;;;24.90;45.60;;;;;;4997100;28;20025;-77
2023/07/14 00:59:42;;;;;;;1.33;0.63;;;24.90;45.60;;;;;;4997257;28;20030;-77
2023/07/14 01:02:11;;;;;;;1.63;0.70;;;24.90;45.80;;;;;;5014674;28;20052;-78
2023/07/14 01:04:39;;;;;;;0.98;0.70;;;24.90;45.80;;;;;;5014953;28;20548;-77
2023/07/14 01:07:06;;;;;;;1.08;0.60;;;24.90;45.80;;;;;;4997104;28;20038;-77
2023/07/14 01:09:33;;;;;;;2.15;0.70;;;;;;;;;;5014517;28;20107;-77
2023/07/14 01:12:01;;;;;;;1.88;0.90;;;24.90;45.00;;;;;;5015121;28;20461;-77
2023/07/14 01:14:33;;;;;;;2.03;0.65;;;24.90;45.70;;;;;;5014543;28;20033;-77
2023/07/14 01:17:01;;;;;;;1.65;0.75;;;24.90;45.90;;;;;;5014617;28;20076;-77
2023/07/14 01:19:43;;;;;;;1.95;0.68;;;24.80;45.30;;;;;;5014401;28;20395;-77
2023/07/14 01:22:21;;;;;;;0.80;0.68;;;24.80;45.20;;;;;;5014733;28;20380;-77
2023/07/14 01:25:14;;;;;;;1.13;0.57;;;24.80;45.20;;;;;;4997914;28;20052;-77
2023/07/14 01:27:40;;;;;;;3.22;0.73;;;;;;;;;;5013841;28;20488;-77
2023/07/14 01:30:07;;;;;;;1.77;0.77;;;24.80;45.20;;;;;;5014255;28;20168;-77
2023/07/14 01:32:36;;;;;;;1.27;0.52;;;24.70;45.10;;;;;;5014251;28;20032;-77
2023/07/14 01:35:05;;;;;;;1.13;0.60;;;24.80;45.30;;;;;;5013961;28;20507;-77
2023/07/14 01:37:35;;;;;;;1.27;0.77;;;24.80;45.30;;;;;;5014198;28;20029;-77
2023/07/14 01:40:05;;;;;;;1.95;0.73;;;24.70;45.20;;;;;;5014168;28;20052;-77
2023/07/14 01:42:32;;;;;;;1.42;0.82;;;24.70;45.80;;;;;;5014385;28;20072;-77
2023/07/14 01:44:59;;;;;;;1.60;0.82;;;24.70;45.70;;;;;;5013638;28;20022;-77
2023/07/14 01:47:25;;;;;;;1.23;0.57;;;24.70;45.80;;;;;;5013777;28;20049;-77
2023/07/14 01:49:52;;;;;;;1.05;0.70;;;24.70;45.80;;;;;;5013959;28;20026;-77
2023/07/14 01:52:30;;;;;;;0.88;0.57;;;24.70;45.80;;;;;;5013974;28;20100;-78
2023/07/14 01:55:04;;;;;;;1.88;0.80;;;24.70;45.80;;;;;;5013681;28;20022;-77
2023/07/14 01:57:33;;;;;;;1.42;0.65;;;24.70;46.00;;;;;;5013745;28;20074;-77
2023/07/14 02:00:09;;;;;;;2.65;0.77;;;24.70;45.90;;;;;;5013852;28;20018;-77
2023/07/14 02:02:37;;;;;;;1.77;0.80;;;24.60;45.70;;;;;;5013110;28;20065;-77
2023/07/14 02:05:11;;;;;;;1.02;0.47;;;24.60;45.70;;;;;;4995924;28;20026;-77
2023/07/14 02:07:36;;;;;;;1.45;0.80;;;24.60;45.60;;;;;;5013579;28;20042;-77
2023/07/14 02:10:02;;;;;;;2.95;1.00;;;24.60;45.80;;;;;;5013441;28;20026;-77
2023/07/14 02:12:31;;;;;;;0.88;0.55;;;24.70;45.90;;;;;;5013655;28;20053;-77
2023/07/14 02:15:04;;;;;;;0.77;0.60;;;24.60;45.90;;;;;;5013661;28;20033;-77
2023/07/14 02:17:33;;;;;;;1.30;0.70;;;24.60;62.70;;;;;;5013383;28;20388;-77
2023/07/14 02:20:06;;;;;;;0.87;0.63;;;24.40;63.10;;;;;;5013821;28;20467;-77
2023/07/14 02:22:34;;;;;;;1.25;0.52;;;24.60;46.10;;;;;;5013170;28;20457;-77
2023/07/14 02:25:04;;;;;;;0.77;0.50;;;24.60;45.90;;;;;;5013670;28;20026;-77
2023/07/14 02:27:30;;;;;;;2.20;0.80;;;24.50;46.00;;;;;;4996605;28;20408;-77
2023/07/14 02:30:01;;;;;;;1.67;0.80;;;24.40;62.70;;;;;;5012828;28;20032;-77
2023/07/14 02:32:38;;;;;;;1.65;0.82;;;24.50;45.20;;;;;;5012917;28;20038;-77
2023/07/14 02:35:20;;;;;;;0.88;0.70;;;24.50;45.50;;;;;;5013312;28;20018;-77
2023/07/14 02:38:03;;;;;;;1.83;0.75;;;24.50;45.40;;;;;;4994556;28;20556;-77
2023/07/14 02:40:50;;;;;;;1.67;1.20;;;25.20;45.60;;;;;;5012827;28;20053;-77
2023/07/14 02:43:19;;;;;;;1.02;0.70;;;24.50;45.30;;;;;;5013057;28;20026;-77
2023/07/14 02:45:57;;;;;;;0.70;0.60;;;24.50;46.30;;;;;;5012843;28;20022;-78
2023/07/14 02:48:38;;;;;;;1.70;0.80;;;24.40;45.40;;;;;;5012268;28;20060;-77
2023/07/14 02:51:05;;;;;;;1.65;0.73;;;;;;;;;;4995448;28;20037;-77
2023/07/14 02:53:31;;;;;;;1.63;0.80;;;24.50;45.50;;;;;;5012691;28;20037;-77
2023/07/14 02:55:56;;;;;;;0.80;0.70;;;24.40;46.00;;;;;;5012639;28;20108;-77
2023/07/14 02:58:23;;;;;;;1.50;0.70;;;24.50;46.10;;;;;;4978457;28;20026;-77
2023/07/14 03:00:49;;;;;;;1.77;0.55;;;24.40;46.00;;;;;;4994892;28;20075;-77
2023/07/14 03:03:15;;;;;;;1.00;0.60;;;24.40;45.90;;;;;;5011838;28;20136;-77
2023/07/14 03:05:43;;;;;;;1.23;0.80;;;24.40;45.90;;;;;;5012371;28;20029;-77
2023/07/14 03:08:16;;;;;;;2.17;0.90;;;24.40;46.00;;;;;;5012068;28;20084;-77
2023/07/14 03:10:44;;;;;;;1.77;0.70;;;24.40;45.90;;;;;;5012718;28;20400;-77
2023/07/14 03:13:11;;;;;;;2.72;0.82;;;24.40;46.00;;;;;;5012376;28;20022;-77
2023/07/14 03:15:37;;;;;;;1.45;0.70;;;24.60;63.50;;;;;;5011972;28;20080;-77
2023/07/14 03:18:04;;;;;;;1.58;0.80;;;24.40;46.30;;;;;;5011831;28;20029;-77
2023/07/14 03:20:30;;;;;;;2.50;0.70;;;24.40;46.40;;;;;;5012333;28;20093;-77
2023/07/14 03:22:57;;;;;;;1.55;0.80;;;;;;;;;;5012161;28;20033;-77
2023/07/14 03:25:24;;;;;;;1.40;0.90;;;;;;;;;;5011930;28;20025;-77
2023/07/14 03:27:50;;;;;;;1.55;0.75;;;24.30;45.50;;;;;;5012096;28;20442;-77
2023/07/14 03:30:16;;;;;;;1.85;0.90;;;24.30;46.00;;;;;;5011745;28;20037;-77
2023/07/14 03:32:42;;;;;;;1.73;0.80;;;24.30;45.90;;;;;;5011540;28;20032;-77
2023/07/14 03:35:08;;;;;;;1.27;0.93;;;24.30;46.00;;;;;;5012044;28;20017;-77
2023/07/14 03:37:34;;;;;;;2.22;0.90;;;24.30;46.10;;;;;;5011458;28;20341;-77
2023/07/14 03:40:00;;;;;;;1.45;0.70;;;24.20;45.90;;;;;;5011319;28;20062;-77
2023/07/14 03:42:26;;;;;;;1.00;0.80;;;24.30;45.90;;;;;;5011716;28;20392;-77
2023/07/14 03:44:52;;;;;;;1.85;0.80;;;24.20;45.90;;;;;;4994267;28;20408;-77
2023/07/14 03:47:18;;;;;;;2.13;0.82;;;24.30;46.00;;;;;;5011648;28;20037;-77
2023/07/14 03:49:45;;;;;;;0.68;0.68;;;;;;;;;;5011290;28;20018;-77
2023/07/14 03:52:13;;;;;;;0.95;0.68;;;;;;;;;;5011265;28;20044;-77
2023/07/14 03:54:39;;;;;;;1.90;0.90;;;;;;;;;;5011222;28;20503;-77
2023/07/14 03:57:06;;;;;;;2.28;0.90;;;24.20;45.40;;;;;;5011320;28;20034;-77
2023/07/14 03:59:34;;;;;;;2.70;1.00;;;24.20;46.20;;;;;;5011433;28;20132;-77
2023/07/14 04:02:00;;;;;;;3.00;1.10;;;24.20;46.20;;;;;;5011547;28;20026;-77
2023/07/14 04:04:28;;;;;;;1.25;0.60;;;24.20;46.10;;;;;;5011883;28;20109;-77
2023/07/14 04:06:55;;;;;;;1.95;0.90;;;24.20;46.00;;;;;;5011394;28;20018;-77
2023/07/14 04:09:22;;;;;;;1.10;0.70;;;24.20;47.10;;;;;;5011876;28;20049;-77
2023/07/14 04:11:49;;;;;;;2.67;1.05;;;23.90;62.80;;;;;;5011548;28;20140;-77
2023/07/14 04:14:15;;;;;;;1.92;0.70;;;24.10;46.20;;;;;;5011631;28;20057;-77
2023/07/14 04:16:42;;;;;;;0.93;0.70;;;24.10;46.00;;;;;;4994189;28;20026;-77
2023/07/14 04:19:07;;;;;;;1.38;0.60;;;24.10;46.20;;;;;;4994377;28;20022;-77
2023/07/14 04:21:33;;;;;;;1.65;0.85;;;24.10;46.20;;;;;;5011839;28;20093;-76
2023/07/14 04:24:00;;;;;;;1.05;0.80;;;;;;;;;;5011648;28;20105;-77
2023/07/14 04:26:27;;;;;;;1.30;0.75;;;23.70;62.80;;;;;;5011504;28;20037;-77
2023/07/14 04:28:54;;;;;;;1.30;0.80;;;;;;;;;;5011141;28;20033;-77
2023/07/14 04:31:20;;;;;;;1.50;0.93;;;;;;;;;;5010991;28;20026;-77
2023/07/14 04:33:49;;;;;;;2.03;0.90;;;24.10;45.60;;;;;;5010935;28;20030;-76
2023/07/14 04:36:15;;;;;;;2.85;1.08;;;;;;;;;;5010972;28;20022;-76
2023/07/14 04:38:45;;;;;;;1.83;0.88;;;24.00;45.60;;;;;;5011004;28;20026;-77
2023/07/14 04:41:13;;;;;;;1.45;0.70;;;23.80;46.30;;;;;;5010862;28;20022;-76
2023/07/14 04:43:40;;;;;;;1.55;0.90;;;24.00;46.20;;;;;;5011337;28;20054;-77
2023/07/14 04:46:07;;;;;;;2.45;0.82;;;;;;;;;;5010893;28;20156;-76
2023/07/14 04:48:33;;;;;;;1.85;0.90;;;;;;;;;;5010776;28;20042;-77
2023/07/14 04:50:59;;;;;;;1.35;0.82;;;24.00;45.60;;;;;;5010934;28;20022;-77
2023/07/14 04:53:25;;;;;;;2.35;0.93;;;24.00;46.70;;;;;;5010791;28;20029;-77
2023/07/14 04:55:52;;;;;;;2.50;1.23;;;24.00;46.40;;;;;;5010815;28;20596;-77
2023/07/14 04:58:18;;;;;;;1.50;0.90;;;24.20;64.00;;;;;;5010830;28;20113;-76
2023/07/14 05:00:46;;;;;;;2.50;1.23;;;24.00;45.80;;;;;;5011144;28;20108;-77
2023/07/14 05:03:12;;;;;;;1.77;1.02;;;;;;;;;;5014288;28;20049;-77
2023/07/14 05:05:38;;;;;;;2.38;1.40;;;;;;;;;;5014254;28;20061;-77
2023/07/14 05:08:04;;;;;;;1.48;0.93;;;;;;;;;;5014211;28;20038;-77
2023/07/14 05:10:32;;;;;;;2.63;1.30;;;23.90;45.80;;;;;;5014835;28;20097;-77
2023/07/14 05:12:58;;;;;;;2.72;1.27;;;;;;;;;;4997369;28;20601;-77
2023/07/14 05:15:25;;;;;;;1.90;1.20;;;23.90;45.90;;;;;;5014105;28;20034;-77
2023/07/14 05:17:51;;;;;;;1.73;1.00;;;;;;;;;;4980255;28;20396;-77
2023/07/14 05:20:19;;;;;;;2.10;1.00;;;23.90;45.90;;;;;;5013884;28;20103;-77
2023/07/14 05:22:48;;;;;;;2.60;0.73;;;23.90;45.90;;;;;;5013823;28;20033;-76
2023/07/14 05:25:15;;;;;;;2.55;1.15;;;23.90;46.50;;;;;;5013955;28;20030;-76
2023/07/14 05:27:43;;;;;;;1.75;1.00;;;23.90;46.70;;;;;;5013824;28;20123;-81
2023/07/14 05:30:12;;;;;;;1.90;1.40;;;23.80;46.50;;;;;;5013980;28;20018;-75
2023/07/14 05:32:38;;;;;;;3.17;1.27;;;23.90;46.50;;;;;;5013693;28;20038;-74
2023/07/14 05:35:04;;;;;;;2.83;1.05;;;23.90;46.60;;;;;;5013974;28;20014;-75
2023/07/14 05:37:30;;;;;;;2.13;0.93;;;23.90;46.70;;;;;;5013642;28;20037;-75
2023/07/14 05:39:56;;;;;;;1.52;0.93;;;23.90;46.90;;;;;;5013660;28;20034;-74
2023/07/14 05:42:21;;;;;;;2.67;1.02;;;23.90;46.90;;;;;;5013661;28;20034;-75
2023/07/14 05:44:47;;;;;;;2.38;1.00;;;23.90;46.90;;;;;;5013632;28;20017;-74
2023/07/14 05:47:14;;;;;;;2.15;1.17;;;23.90;47.00;;;;;;5013314;28;20041;-74
2023/07/14 05:49:39;;;;;;;3.22;1.15;;;23.90;47.10;;;;;;5013343;28;20433;-74
2023/07/14 05:52:09;;;;;;;2.33;1.38;;;23.90;47.30;;;;;;5013471;28;20030;-75
2023/07/14 05:54:35;;;;;;;4.40;1.80;;;;;;;;;;5013125;28;20033;-73
2023/07/14 05:57:02;;;;;;;5.53;1.95;;;;;;;;;;5013619;28;20076;-73
2023/07/14 05:59:28;;;;;;;3.38;1.77;;;23.90;46.90;;;;;;5013387;28;20435;-74
2023/07/14 06:01:54;;;;;;;4.32;1.70;;;23.90;47.60;;;;;;5013073;28;20010;-76
2023/07/14 06:04:20;;;;;;;3.83;1.60;;;23.90;47.50;;;;;;5013133;28;20176;-74
2023/07/14 06:06:46;;;;;;;3.15;1.40;;;23.90;47.60;;;;;;5013224;28;20389;-74
2023/07/14 06:09:14;;;;;;;5.30;1.77;;;23.90;47.80;;;;;;5013479;28;20030;-74
2023/07/14 06:11:41;;;;;;;5.30;2.00;;;23.80;47.50;;;;;;5013304;28;20080;-74
2023/07/14 06:14:09;;;;;;;5.50;1.80;;;;;;;;;;5011919;28;20034;-74
2023/07/14 06:16:35;;;;;;;4.20;1.80;;;23.80;47.60;;;;;;5013331;28;20057;-74
2023/07/14 06:19:00;;;;;;;3.92;1.90;;;23.80;48.10;;;;;;5012823;28;20092;-74
2023/07/14 06:21:26;;;;;;;6.32;2.50;;;23.80;48.00;;;;;;5012820;28;20030;-74
2023/07/14 06:23:52;;;;;;;5.88;2.35;;;23.80;48.00;;;;;;5012540;28;20116;-74
2023/07/14 06:26:18;;;;;;;5.75;2.40;;;23.80;48.30;;;;;;5013508;28;20380;-77
2023/07/14 06:28:45;;;;;;;5.28;2.40;;;23.80;48.20;;;;;;5012890;28;20029;-77
2023/07/14 06:31:13;;;;;;;5.80;2.28;;;23.80;48.50;;;;;;4997842;28;20040;-75
2023/07/14 06:33:40;;;;;;;3.78;2.15;;;23.80;48.40;;;;;;5012754;28;20057;-75
2023/07/14 06:36:06;;;;;;;5.18;2.67;;;23.80;48.40;;;;;;5012574;28;20022;-74
2023/07/14 06:38:34;;;;;;;4.03;2.03;;;23.80;48.80;;;;;;5012358;28;20493;-73
2023/07/14 06:41:03;;;;;;;5.25;2.55;;;23.80;48.60;;;;;;5012480;28;20026;-73
2023/07/14 06:43:31;;;;;;;9.60;2.63;;;23.80;48.30;;;;;;5012723;28;20414;-73
2023/07/14 06:45:58;;;;;;;10.07;2.53;;;23.80;49.10;;;;;;5018300;28;20042;-72
2023/07/14 06:48:28;;;;;;;6.68;2.97;;;23.80;48.80;;;;;;4997229;28;20064;-76
2023/07/14 06:50:54;;;;;;;10.85;2.85;;;23.80;49.10;;;;;;5013074;28;20049;-76
2023/07/14 06:53:20;;;;;;;7.60;2.70;;;23.80;48.70;;;;;;5012922;28;20455;-77
2023/07/14 06:55:47;;;;;;;5.82;2.65;;;23.90;48.80;;;;;;5012945;28;20030;-76
2023/07/14 06:58:13;;;;;;;4.65;2.53;;;23.90;48.80;;;;;;5012552;28;20084;-81
2023/07/14 07:00:39;;;;;;;8.20;2.85;;;23.90;48.90;;;;;;5012638;28;20037;-83
2023/07/14 07:03:05;;;;;;;6.07;2.28;;;23.90;49.00;;;;;;5012654;28;20129;-79
2023/07/14 07:05:42;;;;;;;5.55;2.50;;;23.90;49.20;;;;;;5012266;28;20452;-74
2023/07/14 07:08:10;;;;;;;4.25;2.45;;;23.90;49.20;;;;;;5011870;28;20057;-75
2023/07/14 07:10:35;;;;;;;6.00;2.67;;;23.90;49.20;;;;;;5011780;28;20018;-74
2023/07/14 07:13:01;;;;;;;6.90;2.90;;;23.90;49.30;;;;;;5011786;28;20088;-75
2023/07/14 07:15:27;;;;;;;6.35;3.00;;;23.90;49.30;;;;;;5011862;28;20034;-75
2023/07/14 07:17:53;;;;;;;4.55;2.30;;;23.90;49.20;;;;;;5011703;28;20034;-75
2023/07/14 07:20:19;;;;;;;2.95;2.30;;;23.90;49.30;;;;;;5011629;28;20050;-75
2023/07/14 07:22:46;;;;;;;6.15;2.45;;;23.90;49.50;;;;;;4994247;28;20033;-75
2023/07/14 07:25:12;;;;;;;2.90;2.17;;;23.90;49.60;;;;;;5011310;28;20465;-75
2023/07/14 07:27:38;;;;;;;5.43;2.55;;;23.90;49.50;;;;;;5011593;28;20026;-75
2023/07/14 07:30:05;;;;;;;4.63;2.60;;;24.00;49.40;;;;;;4993725;28;20026;-74
2023/07/14 07:32:32;;;;;;;5.70;2.42;;;24.60;49.90;;;;;;5011416;28;20018;-75
2023/07/14 07:35:00;;;;;;;5.57;2.72;;;23.90;49.40;;;;;;5011496;28;20029;-75
2023/07/14 07:37:28;;;;;;;4.10;2.20;;;24.00;49.80;;;;;;5011582;28;20041;-75
2023/07/14 07:39:55;;;;;;;5.63;2.63;;;24.00;49.70;;;;;;5011313;28;20026;-75
2023/07/14 07:42:21;;;;;;;6.68;2.83;;;24.00;49.90;;;;;;5011223;28;20105;-75
2023/07/14 07:44:48;;;;;;;4.00;2.40;;;24.00;49.70;;;;;;4994149;28;20057;-75
2023/07/14 07:47:14;;;;;;;4.22;2.58;;;24.00;49.80;;;;;;5011229;28;20030;-76
2023/07/14 07:49:40;;;;;;;4.93;2.35;;;24.00;49.80;;;;;;5011499;28;20028;-75
2023/07/14 07:52:07;;;;;;;4.13;1.95;;;24.00;49.80;;;;;;5011611;28;20022;-75
2023/07/14 07:54:33;;;;;;;5.35;2.60;;;24.00;49.80;;;;;;5011190;28;20032;-75
2023/07/14 07:56:59;;;;;;;4.15;2.40;;;24.00;49.80;;;;;;5011193;28;20038;-75
2023/07/14 07:59:25;;;;;;;3.22;2.28;;;24.00;49.80;;;;;;5011754;28;20384;-75
2023/07/14 08:01:51;;;;;;;5.20;2.50;;;24.00;49.80;;;;;;4994333;28;20097;-75
2023/07/14 08:04:18;;;;;;;4.32;2.50;;;24.10;49.90;;;;;;5011341;28;20124;-75
2023/07/14 08:06:44;;;;;;;5.85;2.10;;;24.10;50.00;;;;;;5011807;28;20044;-75
2023/07/14 08:09:12;;;;;;;3.05;2.20;;;24.10;49.90;;;;;;5011949;28;20439;-75
2023/07/14 08:11:37;;;;;;;6.05;2.72;;;24.10;50.00;;;;;;5011416;28;20030;-75
2023/07/14 08:14:06;;;;;;;4.70;2.72;;;24.10;49.90;;;;;;5011506;28;20076;-75
2023/07/14 08:16:31;;;;;;;4.68;1.95;;;24.10;50.00;;;;;;5011498;28;20050;-75
2023/07/14 08:18:59;;;;;;;6.32;2.75;;;24.10;49.90;;;;;;5011529;28;20105;-73
2023/07/14 08:21:25;;;;;;;4.95;2.50;;;24.20;50.00;;;;;;5011264;28;20100;-75
2023/07/14 08:23:51;;;;;;;8.13;2.78;;;24.20;49.90;;;;;;5011113;28;20225;-75
2023/07/14 08:26:18;;;;;;;2.60;1.88;;;;;;;;;;5011222;28;20045;-75
2023/07/14 08:28:44;;;;;;;6.28;2.45;;;24.20;49.30;;;;;;5010908;28;20041;-74
2023/07/14 08:31:12;;;;;;;5.30;2.60;;;24.20;50.00;;;;;;5010841;28;20097;-75
2023/07/14 08:33:43;;;;;;;5.57;2.40;;;24.20;50.10;;;;;;5011124;28;20034;-75
2023/07/14 08:36:11;;;;;;;4.38;2.20;;;24.20;50.10;;;;;;5011842;28;20022;-74
2023/07/14 08:38:39;;;;;;;7.18;2.80;;;24.20;50.10;;;;;;5014847;28;20042;-74
2023/07/14 08:41:14;;;;;;;4.30;2.33;;;24.30;50.10;;;;;;5014626;28;20520;-74
2023/07/14 08:43:55;;;;;;;6.22;2.50;;;24.30;50.70;;;;;;5014850;28;20034;-75
2023/07/14 08:46:37;;;;;;;5.32;2.30;;;24.30;50.20;;;;;;5014872;28;20037;-74
2023/07/14 08:49:26;;;;;;;6.80;2.40;;;24.30;50.00;;;;;;5014537;28;20037;-73
2023/07/14 08:52:23;;;;;;;6.20;2.00;;;24.40;50.00;;;;;;5014817;28;20136;-73
2023/07/14 08:55:21;;;;;;;4.30;2.22;;;24.10;49.80;;;;;;5010894;28;20453;-75
2023/07/14 08:57:52;;;;;;;3.75;1.75;;;23.50;50.20;;;;;;5006967;28;20033;-74
2023/07/14 09:00:54;;;;;;;4.07;2.00;;;24.40;50.00;;;;;;5017246;28;20025;-73
2023/07/14 09:03:20;;;;;;;7.75;2.00;;;24.40;50.00;;;;;;5011709;28;20077;-75
2023/07/14 09:05:51;;;;;;;3.88;1.75;;;24.40;49.90;;;;;;5014107;28;20037;-74
2023/07/14 09:08:17;;;;;;;3.70;2.08;;;24.50;50.00;;;;;;5014319;28;20057;-75
2023/07/14 09:11:05;;;;;;;3.53;1.80;;;24.50;49.90;;;;;;5014214;28;20095;-74
2023/07/14 09:13:40;;;;;;;4.75;2.10;;;24.50;49.70;;;;;;5013963;28;20022;-78
2023/07/14 09:16:10;;;;;;;2.90;1.65;;;24.50;49.90;;;;;;5014067;28;20026;-76
2023/07/14 09:18:39;;;;;;;2.47;1.70;;;24.60;49.90;;;;;;5014014;28;20037;-77
2023/07/14 09:21:15;;;;;;;3.05;1.88;;;24.60;49.90;;;;;;5013916;28;20042;-78
2023/07/14 09:23:57;;;;;;;3.72;2.10;;;24.50;49.90;;;;;;5013706;28;20053;-77
2023/07/14 09:26:34;;;;;;;2.60;1.75;;;24.60;50.60;;;;;;5013872;28;20030;-77
2023/07/14 09:29:12;;;;;;;2.70;2.13;;;24.60;49.50;;;;;;5014107;28;20030;-78
2023/07/14 09:32:00;;;;;;;3.88;2.17;;;24.70;50.00;;;;;;5013837;28;20026;-78
2023/07/14 09:34:36;;;;;;;4.97;1.73;;;24.70;50.00;;;;;;5014652;28;20037;-78
2023/07/14 09:37:20;;;;;;;4.53;2.00;;;24.70;50.00;;;;;;5014622;28;20018;-77
2023/07/14 09:39:51;;;;;;;4.03;1.92;;;24.70;49.90;;;;;;5014039;28;20445;-77
2023/07/14 09:42:25;;;;;;;3.85;1.77;;;24.70;50.00;;;;;;4996936;28;20028;-77
2023/07/14 09:44:51;;;;;;;5.35;2.03;;;24.80;49.90;;;;;;5013878;28;20022;-77
2023/07/14 09:47:19;;;;;;;3.72;1.85;;;24.80;49.90;;;;;;5013664;28;20444;-77
2023/07/14 09:49:51;;;;;;;2.90;1.80;;;24.90;49.90;;;;;;5013644;28;20033;-78
2023/07/14 09:52:23;;;;;;;3.95;2.00;;;24.90;49.90;;;;;;5013823;28;20389;-78
2023/07/14 09:54:54;;;;;;;2.38;1.60;;;24.90;49.90;;;;;;5014155;28;20045;-78
2023/07/14 09:57:27;;;;;;;4.07;1.40;;;24.90;49.80;;;;;;5013754;28;20034;-78
2023/07/14 10:00:13;;;;;;;3.30;1.50;;;24.90;49.90;;;;;;5013414;28;20384;-77
2023/07/14 10:02:40;;;;;;;2.97;1.88;;;24.90;49.80;;;;;;5013173;28;20153;-77
2023/07/14 10:05:57;;;;;;;4.00;1.75;;;24.90;49.80;;;;;;5013327;28;20029;-77
2023/07/14 10:08:54;;;;;;;4.28;1.90;;;24.90;49.50;;;;;;4995634;28;20050;-76
2023/07/14 10:11:40;;;;;;;2.50;1.52;;;25.00;50.40;;;;;;5010951;28;20070;-76
2023/07/14 10:14:25;;;;;;;3.28;1.73;;;25.00;49.80;;;;;;5013084;28;20026;-76
2023/07/14 10:16:53;;;;;;;3.38;1.48;;;25.00;49.70;;;;;;5013097;28;20030;-74
2023/07/14 10:19:31;;;;;;;2.30;1.45;;;25.00;49.80;;;;;;5012971;28;20054;-80
2023/07/14 10:22:12;;;;;;;3.85;1.50;;;25.00;49.70;;;;;;5012652;28;20335;-74
2023/07/14 10:24:38;;;;;;;2.25;1.70;;;24.70;49.70;;;;;;5012915;28;20060;-75
2023/07/14 10:27:18;;;;;;;3.80;1.75;;;25.10;49.90;;;;;;5012994;28;20026;-77
2023/07/14 10:30:05;;;;;;;4.27;2.20;;;25.10;49.70;;;;;;5013285;28;20072;-78
2023/07/14 10:32:52;;;;;;;3.55;1.75;;;25.10;49.60;;;;;;5013097;28;20061;-81
2023/07/14 10:35:20;;;;;;;3.17;1.85;;;25.10;49.60;;;;;;5012929;28;20464;-77
2023/07/14 10:37:56;;;;;;;4.20;1.83;;;25.10;49.90;;;;;;5012750;28;20022;-79
2023/07/14 10:40:26;;;;;;;4.55;1.73;;;25.10;49.80;;;;;;5012939;28;20096;-74
2023/07/14 10:42:57;;;;;;;;;;;25.10;49.80;;;;;;5013003;28;20041;-73
2023/07/14 10:45:24;;;;;;;5.30;1.70;;;25.10;49.60;;;;;;4994817;28;20411;-75
2023/07/14 10:48:30;;;;;;;2.58;1.70;;;25.10;49.70;;;;;;5012232;28;20057;-74
2023/07/14 10:51:12;;;;;;;3.15;1.50;;;25.20;49.60;;;;;;4998189;28;20061;-74
2023/07/14 10:53:46;;;;;;;2.67;1.63;;;25.10;49.50;;;;;;5012152;28;20022;-74
2023/07/14 10:56:40;;;;;;;3.45;1.50;;;25.20;50.20;;;;;;5012165;28;20026;-74
2023/07/14 10:59:35;;;;;;;4.63;1.88;;;25.20;49.60;;;;;;5010835;28;20041;-75
2023/07/14 11:02:10;;;;;;;2.08;1.80;;;25.20;49.50;;;;;;5011547;28;20026;-73
2023/07/14 11:04:41;;;;;;;3.05;1.60;;;25.50;49.60;;;;;;5012075;28;20403;-76
2023/07/14 11:07:16;;;;;;;1.45;1.35;;;25.30;49.40;;;;;;5011640;28;20026;-73
2023/07/14 11:09:42;;;;;;;5.10;1.55;;;25.30;49.40;;;;;;5012286;28;20030;-73
2023/07/14 11:12:28;;;;;;;3.63;1.98;;;25.30;49.30;;;;;;5011875;28;20033;-73
2023/07/14 11:15:25;;;;;;;2.28;1.50;;;25.30;65.80;;;;;;4994014;28;20034;-72
2023/07/14 11:18:03;;;;;;;3.45;1.83;;;25.40;49.10;;;;;;5008509;28;20092;-73
2023/07/14 11:20:40;;;;;;;3.50;1.67;;;25.80;50.50;;;;;;4977997;28;20040;-74
2023/07/14 11:23:24;;;;;;;2.75;2.03;;;25.50;48.90;;;;;;5011517;28;20045;-74
2023/07/14 11:26:16;;;;;;;3.30;1.80;;;25.50;48.80;;;;;;5011771;28;20047;-74
2023/07/14 11:29:04;;;;;;;3.85;1.80;;;25.70;48.10;;;;;;4996289;28;20038;-74
2023/07/14 11:31:54;;;;;;;2.92;1.73;;;25.70;48.70;;;;;;5011421;28;20033;-73
2023/07/14 11:34:39;;;;;;;2.60;1.70;;;25.80;47.90;;;;;;5006860;28;20038;-73
2023/07/14 11:37:29;;;;;;;2.67;1.80;;;25.80;48.50;;;;;;5011498;28;20069;-74
2023/07/14 11:39:58;;;;;;;3.63;1.80;;;25.90;47.90;;;;;;5011556;28;20034;-74
2023/07/14 11:42:36;;;;;;;1.88;1.77;;;25.90;47.80;;;;;;4977654;28;20022;-74
2023/07/14 11:45:16;;;;;;;2.92;1.67;;;26.00;47.80;;;;;;5011740;28;20025;-74
2023/07/14 11:47:43;;;;;;;3.17;1.95;;;26.10;47.60;;;;;;5011453;28;20042;-74
2023/07/14 11:50:30;;;;;;;2.67;1.67;;;26.10;48.60;;;;;;5011770;28;20145;-73
2023/07/14 11:52:57;;;;;;;2.30;1.50;;;26.30;48.80;;;;;;5011348;28;20033;-73
2023/07/14 11:55:27;;;;;;;4.22;1.75;;;26.40;47.30;;;;;;5011687;28;20022;-74
2023/07/14 11:58:24;;;;;;;3.20;1.90;;;26.40;46.90;;;;;;5011459;28;20489;-74
2023/07/14 12:00:58;;;;;;;2.20;1.42;;;26.40;47.80;;;;;;5011357;28;20065;-74
2023/07/14 12:03:38;;;;;;;2.17;1.60;;;26.90;64.60;;;;;;5011174;28;20054;-74
2023/07/14 12:06:24;;;;;;;2.88;1.85;;;26.50;47.10;;;;;;5011357;28;20071;-76
2023/07/14 12:09:05;;;;;;;2.67;1.70;;;26.50;47.60;;;;;;5011077;28;20076;-74
2023/07/14 12:11:53;;;;;;;2.13;1.73;;;26.50;47.60;;;;;;5012947;28;20038;-74
2023/07/14 12:14:37;;;;;;;2.55;1.83;;;26.60;47.90;;;;;;5015635;28;20389;-74
2023/07/14 12:17:30;;;;;;;2.45;1.48;;;27.00;48.30;;;;;;5015494;28;20058;-74
2023/07/14 12:19:56;;;;;;;1.77;1.50;;;;;;;;;;5015146;28;20030;-74
2023/07/14 12:22:42;;;;;;;2.08;1.35;;;26.70;47.20;;;;;;5015111;28;20018;-74
2023/07/14 12:25:15;;;;;;;3.28;1.77;;;26.60;47.80;;;;;;5015074;28;20021;-74
2023/07/14 12:27:54;;;;;;;1.77;1.42;;;26.70;47.70;;;;;;5014749;28;20479;-75
2023/07/14 12:30:24;;;;;;;2.97;1.58;;;26.60;47.50;;;;;;5015415;28;20068;-77
2023/07/14 12:32:55;;;;;;;2.80;1.52;;;26.60;48.20;;;;;;5015540;28;20443;-76
2023/07/14 12:35:25;;;;;;;2.15;1.40;;;26.60;64.80;;;;;;5015047;28;20396;-74
2023/07/14 12:37:51;;;;;;;2.67;1.30;;;26.60;48.20;;;;;;5014602;28;20511;-75
2023/07/14 12:40:22;;;;;;;1.85;1.30;;;26.60;48.20;;;;;;5014675;28;20026;-75
2023/07/14 12:42:50;;;;;;;2.00;1.40;;;26.70;48.30;;;;;;5014920;28;20029;-75
2023/07/14 12:45:19;;;;;;;2.03;1.08;;;26.70;48.20;;;;;;5014728;28;20026;-74
2023/07/14 12:47:48;;;;;;;2.33;1.30;;;26.70;47.90;;;;;;5014548;28;20045;-74
2023/07/14 12:50:20;;;;;;;1.33;1.23;;;26.70;47.70;;;;;;5014846;28;20380;-75
2023/07/14 12:52:48;;;;;;;1.98;1.20;;;26.60;48.30;;;;;;5015083;28;20026;-77
2023/07/14 12:55:18;;;;;;;2.17;1.40;;;26.70;47.70;;;;;;5014617;28;20022;-76
2023/07/14 12:57:47;;;;;;;1.73;1.35;;;26.70;49.20;;;;;;5014803;28;20033;-77
2023/07/14 13:00:23;;;;;;;1.90;1.42;;;26.70;48.50;;;;;;5014278;28;20022;-75
2023/07/14 13:02:50;;;;;;;2.63;1.50;;;;;;;;;;5014045;28;20046;-75
2023/07/14 13:05:17;;;;;;;1.98;1.45;;;27.10;65.00;;;;;;5014135;28;20026;-76
2023/07/14 13:07:50;;;;;;;1.70;1.35;;;26.80;49.00;;;;;;5013949;28;20389;-74
2023/07/14 13:10:16;;;;;;;1.83;1.10;;;;;;;;;;5014141;28;20018;-75
2023/07/14 13:12:42;;;;;;;1.38;1.23;;;26.80;64.20;;;;;;5014065;28;20336;-75
2023/07/14 13:15:16;;;;;;;3.20;1.13;;;26.90;64.40;;;;;;5014058;28;20060;-74
2023/07/14 13:17:43;;;;;;;1.67;1.40;;;;;;;;;;5014077;28;20026;-75